Umm Slal — V7PW3 — position and weather

sailwx.info

Track history (hours):
 
Tides and Currents Weather Stations Pressure Air Temp Water Temp Dewpoint Dewpoint Depression Visibility Wind Speed Wind Dir Waves Ship Positions

Umm Slal

Last reported at 2015-Jul-24 18:30 UTC. Time now 2015-Aug-04 09:45 UTC.
Position N 03°38' E 100°13'.
Warning: this ship's position is 10 days out of date.

Length 345 m; draft 9.4 m.

Type: Ship (hazmat cat A). MMSI: 538003300.

Date/timePositionNaut miles runAvg speedWind from/ knotsBaromVisibWave heightAir tempDewpointWater temp
2015-Jul-24 18:30N 03°38' E 100°13'3920.0
2015-Jul-24 16:33N 03°07' E 100°36'3216.3
2015-Jul-24 14:34N 02°48' E 101°03'1915.4
2015-Jul-24 13:20N 02°40' E 101°20'2916.1
2015-Jul-24 11:33N 02°24' E 101°44'3316.5
2015-Jul-24 09:33N 02°03' E 102°09'10915.5
2015-Jul-24 02:33N 01°09' E 103°43'1211.6
2015-Jul-24 01:33N 01°13' E 103°54'1211.9
2015-Jul-24 00:33N 01°16' E 104°06'  
Track history (hours):
 
Tides and Currents Weather Stations Pressure Air Temp Water Temp Dewpoint Dewpoint Depression Visibility Wind Speed Wind Dir Waves Ship Positions

Umm Slal

Last reported at 2015-Jul-24 18:30 UTC. Time now 2015-Aug-04 09:45 UTC.
Position N 03°38' E 100°13'.
Warning: this ship's position is 10 days out of date.

Length 345 m; draft 9.4 m.

Type: Ship (hazmat cat A). MMSI: 538003300.

Date/timePositionNaut miles runAvg speedWind from/ knotsBaromVisibWave heightAir tempDewpointWater temp
2015-Jul-24 18:30N 03°38' E 100°13'3920.0
2015-Jul-24 16:33N 03°07' E 100°36'3216.3
2015-Jul-24 14:34N 02°48' E 101°03'1915.4
2015-Jul-24 13:20N 02°40' E 101°20'2916.1
2015-Jul-24 11:33N 02°24' E 101°44'3316.5
2015-Jul-24 09:33N 02°03' E 102°09'10915.5
2015-Jul-24 02:33N 01°09' E 103°43'1211.6
2015-Jul-24 01:33N 01°13' E 103°54'1211.9
2015-Jul-24 00:33N 01°16' E 104°06'  

Dump ship's entire track history